createdAt,value
2017-12-01T00:00:36.693Z,-1.69
2017-12-01T00:03:04.471Z,-1.83
2017-12-01T00:05:32.056Z,-1.84
2017-12-01T00:07:59.619Z,-1.84
2017-12-01T00:10:27.191Z,-1.91
2017-12-01T00:12:54.760Z,-2.07
2017-12-01T00:15:22.354Z,-2.07
2017-12-01T00:17:49.923Z,-2.12
2017-12-01T00:20:17.583Z,-2.17
2017-12-01T00:22:45.155Z,-2.12
2017-12-01T00:25:12.738Z,-2.17
2017-12-01T00:27:40.412Z,-2.23
2017-12-01T00:30:07.958Z,-2.16
2017-12-01T00:32:35.542Z,-2.17
2017-12-01T00:35:03.183Z,-2.11
2017-12-01T00:37:30.770Z,-1.98
2017-12-01T00:39:58.354Z,-1.94
2017-12-01T00:42:25.947Z,-1.89
2017-12-01T00:44:53.509Z,-1.86
2017-12-01T00:47:22.369Z,-1.79
2017-12-01T00:49:50.031Z,-1.76
2017-12-01T00:52:17.760Z,-1.73
2017-12-01T00:54:45.378Z,-1.61
2017-12-01T00:57:14.343Z,-1.62
2017-12-01T00:59:42.013Z,-1.74
2017-12-01T01:02:09.670Z,-1.64
2017-12-01T01:04:37.309Z,-1.55
2017-12-01T01:07:05.122Z,-1.47
2017-12-01T01:09:32.683Z,-1.39
2017-12-01T01:12:00.299Z,-1.35
2017-12-01T01:14:27.904Z,-1.36
2017-12-01T01:16:55.493Z,-1.31
2017-12-01T01:19:23.693Z,-1.26
2017-12-01T01:21:51.338Z,-1.13
2017-12-01T01:24:18.925Z,-1.18
2017-12-01T01:26:47.130Z,-1.19
2017-12-01T01:29:14.770Z,-1.07
2017-12-01T01:31:42.356Z,-1.20
2017-12-01T01:34:09.959Z,-1.16
2017-12-01T01:36:37.811Z,-1.17
2017-12-01T01:39:05.455Z,-1.26
2017-12-01T01:41:33.037Z,-1.37
2017-12-01T01:44:00.690Z,-1.45
2017-12-01T01:46:28.291Z,-1.55
2017-12-01T01:48:55.881Z,-1.57
2017-12-01T01:51:23.584Z,-1.60
2017-12-01T01:53:51.184Z,-1.66
2017-12-01T01:56:18.828Z,-1.69
2017-12-01T01:58:46.464Z,-1.74
2017-12-01T02:01:14.024Z,-1.71
2017-12-01T02:03:41.602Z,-1.81
2017-12-01T02:06:09.290Z,-1.94
2017-12-01T02:08:36.869Z,-1.93
2017-12-01T02:11:04.867Z,-1.98
2017-12-01T02:13:32.496Z,-2.03
2017-12-01T02:16:00.090Z,-2.02
2017-12-01T02:18:27.713Z,-1.93
2017-12-01T02:20:55.393Z,-1.97
2017-12-01T02:23:22.999Z,-1.96
2017-12-01T02:25:50.579Z,-1.89
2017-12-01T02:28:21.232Z,-1.88
2017-12-01T02:30:48.833Z,-1.74
2017-12-01T02:33:16.421Z,-1.76
2017-12-01T02:35:44.107Z,-1.69
2017-12-01T02:38:11.669Z,-1.67
2017-12-01T02:40:39.304Z,-1.57
2017-12-01T02:43:07.151Z,-1.65
2017-12-01T02:45:34.864Z,-1.69
2017-12-01T02:48:02.438Z,-1.55
2017-12-01T02:50:30.026Z,-1.58
2017-12-01T02:52:57.641Z,-1.85
2017-12-01T02:55:25.265Z,-2.06
2017-12-01T02:57:52.890Z,-2.25
2017-12-01T03:00:20.513Z,-2.41
2017-12-01T03:02:48.086Z,-2.52
2017-12-01T03:05:15.796Z,-2.69
2017-12-01T03:07:43.416Z,-2.75
2017-12-01T03:10:11.036Z,-2.88
2017-12-01T03:12:39.070Z,-2.97
2017-12-01T03:15:07.134Z,-3.00
2017-12-01T03:17:34.837Z,-3.05
2017-12-01T03:20:02.436Z,-3.06
2017-12-01T03:22:30.109Z,-3.24
2017-12-01T03:24:57.713Z,-3.28
2017-12-01T03:27:25.311Z,-3.23
2017-12-01T03:29:52.942Z,-3.28
2017-12-01T03:32:20.646Z,-3.30
2017-12-01T03:34:48.398Z,-3.33
2017-12-01T03:37:16.348Z,-3.38
2017-12-01T03:39:43.977Z,-3.43
2017-12-01T03:42:11.682Z,-3.29
2017-12-01T03:44:39.281Z,-3.23
2017-12-01T03:47:06.918Z,-3.28
2017-12-01T03:49:34.532Z,-3.30
2017-12-01T03:52:02.122Z,-3.42
2017-12-01T03:54:30.094Z,-3.42
2017-12-01T03:56:57.892Z,-3.49
2017-12-01T03:59:25.486Z,-3.34
2017-12-01T04:01:53.301Z,-3.32
2017-12-01T04:04:20.972Z,-3.30
2017-12-01T04:06:48.590Z,-3.09
2017-12-01T04:09:16.189Z,-3.04
2017-12-01T04:11:43.812Z,-2.96
2017-12-01T04:14:11.570Z,-2.92
2017-12-01T04:16:39.148Z,-2.80
2017-12-01T04:19:07.052Z,-2.76
2017-12-01T04:21:34.706Z,-2.64
2017-12-01T04:24:02.361Z,-2.62
2017-12-01T04:26:30.308Z,-2.57
2017-12-01T04:28:59.223Z,-2.59
2017-12-01T04:31:27.096Z,-2.63
2017-12-01T04:33:54.693Z,-2.52
2017-12-01T04:36:22.393Z,-2.48
2017-12-01T04:38:50.097Z,-2.74
2017-12-01T04:41:17.841Z,-2.74
2017-12-01T04:43:45.513Z,-2.76
2017-12-01T04:46:13.202Z,-2.89
2017-12-01T04:48:40.822Z,-3.09
2017-12-01T04:51:08.636Z,-3.20
2017-12-01T04:53:36.640Z,-3.30
2017-12-01T04:56:04.728Z,-3.34
2017-12-01T04:58:32.406Z,-3.30
2017-12-01T05:01:00.032Z,-3.31
2017-12-01T05:03:28.368Z,-3.39
2017-12-01T05:05:56.075Z,-3.39
2017-12-01T05:08:24.015Z,-3.41
2017-12-01T05:10:51.598Z,-3.45
2017-12-01T05:13:19.641Z,-3.49
2017-12-01T05:15:47.397Z,-3.47
2017-12-01T05:18:15.106Z,-3.49
2017-12-01T05:20:42.806Z,-3.52
2017-12-01T05:23:10.562Z,-3.52
2017-12-01T05:25:38.203Z,-3.43
2017-12-01T05:28:05.812Z,-3.47
2017-12-01T05:30:33.510Z,-3.55
2017-12-01T05:33:01.266Z,-3.72
2017-12-01T05:35:28.907Z,-3.74
2017-12-01T05:37:56.565Z,-3.78
2017-12-01T05:40:24.168Z,-3.79
2017-12-01T05:42:51.794Z,-3.67
2017-12-01T05:45:19.392Z,-3.65
2017-12-01T05:47:47.100Z,-3.82
2017-12-01T05:50:14.696Z,-3.81
2017-12-01T05:52:42.307Z,-3.75
2017-12-01T05:55:10.101Z,-3.90
2017-12-01T05:57:37.688Z,-4.00
2017-12-01T06:00:05.532Z,-4.00
2017-12-01T06:02:33.283Z,-3.98
2017-12-01T06:05:01.056Z,-4.08
2017-12-01T06:07:28.669Z,-4.13
2017-12-01T06:09:56.462Z,-4.16
2017-12-01T06:12:24.022Z,-4.24
2017-12-01T06:14:51.800Z,-4.24
2017-12-01T06:17:19.689Z,-4.18
2017-12-01T06:19:47.310Z,-4.25
2017-12-01T06:22:15.030Z,-4.35
2017-12-01T06:24:42.664Z,-4.42
2017-12-01T06:27:10.385Z,-4.46
2017-12-01T06:29:37.999Z,-4.45
2017-12-01T06:32:05.581Z,-4.51
2017-12-01T06:34:33.303Z,-4.56
2017-12-01T06:37:00.931Z,-4.59
2017-12-01T06:39:28.551Z,-4.38
2017-12-01T06:41:56.157Z,-4.33
2017-12-01T06:44:24.307Z,-4.35
2017-12-01T06:46:51.945Z,-4.31
2017-12-01T06:49:19.559Z,-4.29
2017-12-01T06:51:47.261Z,-4.26
2017-12-01T06:54:14.884Z,-4.26
2017-12-01T06:56:42.649Z,-4.30
2017-12-01T06:59:10.353Z,-4.32
2017-12-01T07:01:38.729Z,-4.30
2017-12-01T07:04:06.451Z,-4.27
2017-12-01T07:06:34.205Z,-4.33
2017-12-01T07:09:02.261Z,-4.34
2017-12-01T07:11:30.010Z,-4.30
2017-12-01T07:13:58.344Z,-4.35
2017-12-01T07:16:25.947Z,-4.40
2017-12-01T07:18:53.689Z,-4.56
2017-12-01T07:21:21.324Z,-4.59
2017-12-01T07:23:49.112Z,-4.59
2017-12-01T07:26:28.373Z,-4.61
2017-12-01T07:28:55.968Z,-4.53
2017-12-01T07:31:23.565Z,-4.40
2017-12-01T07:33:51.200Z,-4.20
2017-12-01T07:36:20.035Z,-4.05
2017-12-01T07:38:47.841Z,-3.95
2017-12-01T07:41:17.056Z,-4.03
2017-12-01T07:43:45.178Z,-4.05
2017-12-01T07:46:13.972Z,-4.05
2017-12-01T07:48:41.785Z,-4.01
2017-12-01T07:51:09.569Z,-3.89
2017-12-01T07:53:37.191Z,-3.81
2017-12-01T07:56:05.875Z,-3.70
2017-12-01T07:58:34.717Z,-3.59
2017-12-01T08:01:02.335Z,-3.52
2017-12-01T08:03:31.228Z,-3.46
2017-12-01T08:05:58.833Z,-3.36
2017-12-01T08:08:26.614Z,-3.14
2017-12-01T08:10:54.241Z,-3.18
2017-12-01T08:13:22.375Z,-3.19
2017-12-01T08:16:01.776Z,-3.27
2017-12-01T08:18:41.164Z,-3.26
2017-12-01T08:21:09.971Z,-3.13
2017-12-01T08:23:49.507Z,-3.04
2017-12-01T08:26:17.178Z,-2.93
2017-12-01T08:28:44.804Z,-2.85
2017-12-01T08:31:12.408Z,-2.75
2017-12-01T08:33:40.080Z,-2.59
2017-12-01T08:36:07.662Z,-2.53
2017-12-01T08:38:35.270Z,-2.56
2017-12-01T08:41:02.933Z,-2.59
2017-12-01T08:43:30.553Z,-2.59
2017-12-01T08:45:58.150Z,-2.72
2017-12-01T08:48:25.921Z,-2.78
2017-12-01T08:50:53.541Z,-2.77
2017-12-01T08:53:21.129Z,-2.65
2017-12-01T08:55:48.767Z,-2.44
2017-12-01T08:58:16.389Z,-2.26
2017-12-01T09:00:44.143Z,-2.08
2017-12-01T09:03:12.525Z,-1.94
2017-12-01T09:05:40.242Z,-1.91
2017-12-01T09:08:07.859Z,-1.74
2017-12-01T09:10:36.117Z,-1.94
2017-12-01T09:13:03.839Z,-1.93
2017-12-01T09:15:31.539Z,-1.84
2017-12-01T09:17:59.196Z,-1.60
2017-12-01T09:20:27.083Z,-1.39
2017-12-01T09:22:54.704Z,-1.38
2017-12-01T09:25:22.301Z,-1.42
2017-12-01T09:27:49.925Z,-1.36
2017-12-01T09:30:18.027Z,-1.15
2017-12-01T09:32:45.656Z,-1.16
2017-12-01T09:35:13.499Z,-1.21
2017-12-01T09:37:41.139Z,-1.20
2017-12-01T09:40:08.732Z,-1.14
2017-12-01T09:42:36.370Z,-1.10
2017-12-01T09:45:04.397Z,-1.00
2017-12-01T09:47:32.033Z,-0.90
2017-12-01T09:49:59.643Z,-0.87
2017-12-01T09:52:27.293Z,-0.85
2017-12-01T09:54:54.901Z,-0.71
2017-12-01T09:57:22.959Z,-0.51
2017-12-01T09:59:50.551Z,-0.44
2017-12-01T10:02:18.179Z,-0.51
2017-12-01T10:04:45.790Z,-0.57
2017-12-01T10:07:13.617Z,-0.52
2017-12-01T10:09:41.270Z,-0.36
2017-12-01T10:12:09.102Z,-0.25
2017-12-01T10:14:36.737Z,-0.13
2017-12-01T10:17:04.366Z,-0.17
2017-12-01T10:22:23.335Z,0.10
2017-12-01T10:24:52.900Z,0.16
2017-12-01T10:27:20.555Z,0.17
2017-12-01T10:29:48.237Z,0.18
2017-12-01T10:32:16.020Z,0.12
2017-12-01T10:34:43.709Z,0.30
2017-12-01T10:37:11.585Z,0.52
2017-12-01T10:39:39.259Z,0.51
2017-12-01T10:42:06.870Z,0.46
2017-12-01T10:44:34.498Z,0.37
2017-12-01T10:47:02.080Z,0.63
2017-12-01T10:49:29.711Z,0.73
2017-12-01T10:51:57.331Z,0.76
2017-12-01T10:54:26.775Z,0.68
2017-12-01T10:56:54.361Z,0.81
2017-12-01T10:59:22.100Z,0.82
2017-12-01T11:01:49.732Z,0.95
2017-12-01T11:04:17.276Z,1.22
2017-12-01T11:06:46.424Z,1.33
2017-12-01T11:09:18.220Z,1.38
2017-12-01T11:11:46.083Z,1.28
2017-12-01T11:14:13.687Z,1.19
2017-12-01T11:16:42.614Z,1.21
2017-12-01T11:19:10.297Z,1.11
2017-12-01T11:21:38.077Z,1.14
2017-12-01T11:24:05.972Z,1.12
2017-12-01T11:26:33.575Z,1.12
2017-12-01T11:29:01.159Z,1.28
2017-12-01T11:31:28.985Z,1.42
2017-12-01T11:33:56.851Z,1.52
2017-12-01T11:36:24.663Z,1.56
2017-12-01T11:38:52.254Z,1.59
2017-12-01T11:41:20.008Z,1.44
2017-12-01T11:43:47.636Z,1.40
2017-12-01T11:46:15.209Z,1.43
2017-12-01T11:48:43.108Z,1.30
2017-12-01T11:51:12.673Z,1.29
2017-12-01T11:53:40.244Z,1.30
2017-12-01T11:56:07.882Z,1.28
2017-12-01T11:58:35.429Z,1.16
2017-12-01T12:01:02.985Z,1.15
2017-12-01T12:03:30.976Z,1.32
2017-12-01T12:05:58.544Z,1.64
2017-12-01T12:08:27.114Z,1.91
2017-12-01T12:10:54.817Z,2.02
2017-12-01T12:13:22.417Z,2.15
2017-12-01T12:15:50.063Z,2.41
2017-12-01T12:18:17.655Z,2.63
2017-12-01T12:20:45.253Z,2.78
2017-12-01T12:23:12.959Z,2.90
2017-12-01T12:25:40.548Z,3.12
2017-12-01T12:28:08.102Z,3.17
2017-12-01T12:30:35.706Z,3.13
2017-12-01T12:33:03.327Z,3.06
2017-12-01T12:35:30.881Z,3.13
2017-12-01T12:37:58.473Z,3.36
2017-12-01T12:40:26.059Z,3.35
2017-12-01T12:42:53.646Z,3.42
2017-12-01T12:45:21.254Z,3.22
2017-12-01T12:47:48.824Z,3.05
2017-12-01T12:50:16.431Z,2.78
2017-12-01T12:52:44.138Z,2.43
2017-12-01T12:55:11.947Z,2.33
2017-12-01T12:57:39.509Z,2.22
2017-12-01T13:00:07.297Z,2.06
2017-12-01T13:02:34.917Z,2.11
2017-12-01T13:05:02.500Z,2.15
2017-12-01T13:07:30.141Z,2.34
2017-12-01T13:09:57.709Z,2.69
2017-12-01T13:12:25.427Z,2.78
2017-12-01T13:14:53.020Z,2.92
2017-12-01T13:17:20.627Z,2.99
2017-12-01T13:19:48.234Z,3.06
2017-12-01T13:22:16.070Z,2.61
2017-12-01T13:24:43.693Z,2.06
2017-12-01T13:27:11.410Z,1.65
2017-12-01T13:29:39.180Z,1.45
2017-12-01T13:32:06.830Z,1.64
2017-12-01T13:34:34.465Z,1.77
2017-12-01T13:37:02.066Z,1.91
2017-12-01T13:39:29.715Z,2.02
2017-12-01T13:44:48.102Z,2.13
2017-12-01T13:47:15.923Z,2.10
2017-12-01T13:49:43.621Z,1.98
2017-12-01T13:52:11.508Z,2.02
2017-12-01T13:54:39.382Z,1.92
2017-12-01T13:57:07.501Z,1.82
2017-12-01T13:59:36.575Z,1.57
2017-12-01T14:02:04.616Z,1.57
2017-12-01T14:04:32.540Z,1.73
2017-12-01T14:09:32.080Z,1.43
2017-12-01T14:11:59.796Z,1.19
2017-12-01T14:14:27.545Z,0.97
2017-12-01T14:16:55.230Z,0.77
2017-12-01T14:19:23.359Z,0.55
2017-12-01T14:21:51.042Z,0.36
2017-12-01T14:24:18.633Z,0.18
2017-12-01T14:26:46.264Z,0.10
2017-12-01T14:29:14.125Z,0.04
2017-12-01T14:31:41.757Z,-0.01
2017-12-01T14:34:09.412Z,0.03
2017-12-01T14:36:37.305Z,0.00
2017-12-01T14:39:05.192Z,-0.08
2017-12-01T14:41:33.109Z,-0.16
2017-12-01T14:44:00.716Z,-0.19
2017-12-01T14:46:28.357Z,-0.18
2017-12-01T14:48:56.073Z,-0.24
2017-12-01T14:51:23.801Z,-0.31
2017-12-01T14:53:51.435Z,-0.46
2017-12-01T14:56:19.371Z,-0.53
2017-12-01T14:58:47.017Z,-0.64
2017-12-01T15:01:14.664Z,-0.79
2017-12-01T15:03:42.289Z,-0.90
2017-12-01T15:06:10.567Z,-0.98
2017-12-01T15:08:38.161Z,-1.01
2017-12-01T15:11:05.914Z,-1.07
2017-12-01T15:13:33.569Z,-1.09
2017-12-01T15:16:01.135Z,-1.15
2017-12-01T15:18:28.842Z,-1.13
2017-12-01T15:20:56.476Z,-1.15
2017-12-01T15:23:24.088Z,-1.24
2017-12-01T15:25:52.596Z,-1.35
2017-12-01T15:28:20.295Z,-1.44
2017-12-01T15:30:48.569Z,-1.50
2017-12-01T15:33:17.052Z,-1.57
2017-12-01T15:35:46.146Z,-1.61
2017-12-01T15:38:13.771Z,-1.66
2017-12-01T15:40:41.418Z,-1.75
2017-12-01T15:43:09.207Z,-1.85
2017-12-01T15:45:36.878Z,-1.93
2017-12-01T15:48:05.957Z,-1.94
2017-12-01T15:50:33.818Z,-1.99
2017-12-01T15:53:01.439Z,-2.05
2017-12-01T15:55:29.326Z,-2.07
2017-12-01T15:57:57.035Z,-2.18
2017-12-01T16:00:24.696Z,-2.24
2017-12-01T16:02:52.331Z,-2.30
2017-12-01T16:05:20.060Z,-2.36
2017-12-01T16:07:47.674Z,-2.42
2017-12-01T16:10:15.441Z,-2.52
2017-12-01T16:12:43.180Z,-2.57
2017-12-01T16:15:11.767Z,-2.56
2017-12-01T16:17:39.469Z,-2.58
2017-12-01T16:20:07.211Z,-2.60
2017-12-01T16:22:34.840Z,-2.49
2017-12-01T16:25:02.468Z,-2.41
2017-12-01T16:27:30.117Z,-2.50
2017-12-01T16:29:57.830Z,-2.62
2017-12-01T16:32:25.407Z,-2.72
2017-12-01T16:34:53.086Z,-2.82
2017-12-01T16:37:20.696Z,-2.86
2017-12-01T16:39:48.282Z,-2.89
2017-12-01T16:42:15.964Z,-2.89
2017-12-01T16:44:43.617Z,-2.87
2017-12-01T16:47:11.407Z,-2.86
2017-12-01T16:49:39.110Z,-2.91
2017-12-01T16:52:06.764Z,-2.98
2017-12-01T16:54:34.405Z,-3.07
2017-12-01T16:57:02.040Z,-3.06
2017-12-01T16:59:29.623Z,-3.11
2017-12-01T17:01:57.242Z,-3.12
2017-12-01T17:04:24.884Z,-3.19
2017-12-01T17:06:52.527Z,-3.17
2017-12-01T17:09:20.127Z,-3.02
2017-12-01T17:11:47.814Z,-2.95
2017-12-01T17:14:15.494Z,-2.98
2017-12-01T17:16:43.149Z,-3.10
2017-12-01T17:19:11.433Z,-3.17
2017-12-01T17:21:39.155Z,-3.18
2017-12-01T17:24:06.790Z,-3.14
2017-12-01T17:26:34.659Z,-3.13
2017-12-01T17:29:02.340Z,-3.24
2017-12-01T17:31:29.937Z,-3.39
2017-12-01T17:33:57.620Z,-3.59
2017-12-01T17:36:25.355Z,-3.70
2017-12-01T17:38:53.045Z,-3.69
2017-12-01T17:41:20.755Z,-3.73
2017-12-01T17:43:48.435Z,-3.57
2017-12-01T17:46:16.055Z,-3.55
2017-12-01T17:48:43.725Z,-3.55
2017-12-01T17:51:11.959Z,-3.49
2017-12-01T17:53:39.590Z,-3.37
2017-12-01T17:56:07.259Z,-3.37
2017-12-01T17:58:34.957Z,-3.36
2017-12-01T18:01:02.637Z,-3.25
2017-12-01T18:03:30.343Z,-3.27
2017-12-01T18:05:57.979Z,-3.39
2017-12-01T18:08:25.605Z,-3.53
2017-12-01T18:10:58.113Z,-3.66
2017-12-01T18:13:26.658Z,-3.77
2017-12-01T18:15:54.310Z,-3.79
2017-12-01T18:18:21.998Z,-3.83
2017-12-01T18:20:49.616Z,-3.90
2017-12-01T18:23:17.200Z,-3.92
2017-12-01T18:25:45.681Z,-3.94
2017-12-01T18:28:13.330Z,-3.90
2017-12-01T18:30:40.949Z,-3.91
2017-12-01T18:33:09.000Z,-3.96
2017-12-01T18:35:36.599Z,-4.06
2017-12-01T18:38:04.192Z,-4.05
2017-12-01T18:40:31.837Z,-4.05
2017-12-01T18:42:59.477Z,-4.03
2017-12-01T18:45:27.172Z,-4.03
2017-12-01T18:47:54.787Z,-4.01
2017-12-01T18:50:22.463Z,-3.98
2017-12-01T18:52:50.040Z,-3.98
2017-12-01T18:55:17.770Z,-4.05
2017-12-01T18:57:45.379Z,-4.20
2017-12-01T19:00:12.987Z,-4.27
2017-12-01T19:02:40.790Z,-4.22
2017-12-01T19:05:08.414Z,-4.19
2017-12-01T19:07:36.183Z,-4.24
2017-12-01T19:10:03.888Z,-4.17
2017-12-01T19:12:31.839Z,-4.14
2017-12-01T19:15:00.590Z,-4.15
2017-12-01T19:17:28.353Z,-4.14
2017-12-01T19:19:55.998Z,-4.16
2017-12-01T19:22:23.634Z,-4.16
2017-12-01T19:24:51.446Z,-4.13
2017-12-01T19:27:19.366Z,-4.11
2017-12-01T19:29:47.013Z,-4.09
2017-12-01T19:35:04.638Z,-4.05
2017-12-01T19:37:32.270Z,-4.13
2017-12-01T19:39:59.871Z,-4.15
2017-12-01T19:42:27.502Z,-4.17
2017-12-01T19:44:55.131Z,-4.18
2017-12-01T19:47:22.810Z,-4.24
2017-12-01T19:49:50.484Z,-4.31
2017-12-01T19:52:18.228Z,-4.19
2017-12-01T19:54:46.679Z,-4.14
2017-12-01T19:57:14.406Z,-4.17
2017-12-01T19:59:42.556Z,-4.25
2017-12-01T20:02:10.257Z,-4.33
2017-12-01T20:04:37.946Z,-4.46
2017-12-01T20:07:05.648Z,-4.60
2017-12-01T20:09:33.464Z,-4.52
2017-12-01T20:12:01.204Z,-4.46
2017-12-01T20:14:28.780Z,-4.46
2017-12-01T20:16:56.477Z,-4.59
2017-12-01T20:19:24.108Z,-4.65
2017-12-01T20:21:51.698Z,-4.55
2017-12-01T20:24:19.668Z,-4.47
2017-12-01T20:26:47.332Z,-4.40
2017-12-01T20:29:14.969Z,-4.54
2017-12-01T20:31:42.739Z,-4.57
2017-12-01T20:34:10.635Z,-4.48
2017-12-01T20:36:38.362Z,-4.39
2017-12-01T20:39:06.297Z,-4.37
2017-12-01T20:41:34.242Z,-4.23
2017-12-01T20:44:01.830Z,-4.20
2017-12-01T20:46:29.599Z,-4.17
2017-12-01T20:48:57.222Z,-4.20
2017-12-01T20:51:24.750Z,-4.16
2017-12-01T20:53:52.325Z,-4.21
2017-12-01T20:56:19.975Z,-4.33
2017-12-01T20:58:47.570Z,-4.43
2017-12-01T21:01:15.135Z,-4.43
2017-12-01T21:03:42.812Z,-4.43
2017-12-01T21:06:10.399Z,-4.37
2017-12-01T21:08:38.026Z,-4.36
2017-12-01T21:11:05.706Z,-4.33
2017-12-01T21:13:33.337Z,-4.22
2017-12-01T21:16:01.048Z,-4.24
2017-12-01T21:18:28.784Z,-4.24
2017-12-01T21:20:56.416Z,-4.35
2017-12-01T21:23:24.196Z,-4.46
2017-12-01T21:25:51.877Z,-4.59
2017-12-01T21:28:19.543Z,-4.66
2017-12-01T21:30:47.247Z,-4.66
2017-12-01T21:33:14.920Z,-4.58
2017-12-01T21:35:42.579Z,-4.44
2017-12-01T21:38:10.373Z,-4.40
2017-12-01T21:40:38.066Z,-4.37
2017-12-01T21:43:05.772Z,-4.35
2017-12-01T21:45:33.460Z,-4.24
2017-12-01T21:48:01.099Z,-4.16
2017-12-01T21:50:28.697Z,-4.14
2017-12-01T21:52:57.016Z,-4.07
2017-12-01T21:55:24.742Z,-4.00
2017-12-01T21:57:54.300Z,-3.91
2017-12-01T22:00:21.920Z,-3.80
2017-12-01T22:02:49.508Z,-3.67
2017-12-01T22:05:17.094Z,-3.56
2017-12-01T22:07:44.687Z,-3.44
2017-12-01T22:10:12.420Z,-3.44
2017-12-01T22:12:40.256Z,-3.43
2017-12-01T22:15:08.046Z,-3.33
2017-12-01T22:17:35.680Z,-3.25
2017-12-01T22:20:03.371Z,-3.18
2017-12-01T22:22:30.964Z,-3.15
2017-12-01T22:24:58.575Z,-3.11
2017-12-01T22:27:26.526Z,-3.12
2017-12-01T22:29:54.317Z,-3.20
2017-12-01T22:32:22.076Z,-3.20
2017-12-01T22:34:49.687Z,-3.13
2017-12-01T22:37:17.353Z,-3.12
2017-12-01T22:39:45.063Z,-3.08
2017-12-01T22:42:12.697Z,-3.05
2017-12-01T22:44:40.329Z,-3.06
2017-12-01T22:47:08.625Z,-2.94
2017-12-01T22:49:36.237Z,-2.96
2017-12-01T22:52:03.984Z,-3.02
2017-12-01T22:54:31.676Z,-2.92
2017-12-01T22:56:59.261Z,-2.84
2017-12-01T22:59:26.883Z,-2.84
2017-12-01T23:01:54.503Z,-2.83
2017-12-01T23:04:22.114Z,-2.84
2017-12-01T23:06:49.760Z,-2.82
2017-12-01T23:09:17.361Z,-2.78
2017-12-01T23:11:44.944Z,-2.73
2017-12-01T23:14:12.573Z,-2.62
2017-12-01T23:16:40.265Z,-2.48
2017-12-01T23:19:08.776Z,-2.40
2017-12-01T23:21:36.442Z,-2.39
2017-12-01T23:24:04.210Z,-2.32
2017-12-01T23:26:34.797Z,-2.26
2017-12-01T23:29:03.213Z,-2.21
2017-12-01T23:31:31.015Z,-2.16
2017-12-01T23:33:58.693Z,-2.14
2017-12-01T23:36:26.337Z,-2.19
2017-12-01T23:38:53.928Z,-2.26
2017-12-01T23:41:21.522Z,-2.36
2017-12-01T23:43:49.149Z,-2.38
2017-12-01T23:46:16.739Z,-2.26
2017-12-01T23:48:44.373Z,-2.20
2017-12-01T23:51:12.031Z,-2.24
2017-12-01T23:53:39.663Z,-2.14
2017-12-01T23:56:07.340Z,-2.14
2017-12-01T23:58:34.935Z,-2.16
